Time;durP1;ratioP1;P1;durP2;ratioP2;P2;SDS_P1;SDS_P2;PMS_P1;PMS_P2;Temp;Humidity;BMP_temperature;BMP_pressure;BME280_temperature;BME280_humidity;BME280_pressure;Samples;Min_cycle;Max_cycle;Signal;HPM_P1;HPM_P2
2022/07/28 00:00:22;;;;;;;;;16.00;16.00;;;;;23.23;62.11;99469.16;6280822;20;2826451;-60
2022/07/28 00:02:51;;;;;;;;;17.00;14.67;;;;;23.14;62.81;99469.38;6286167;20;3554557;-60
2022/07/28 00:05:21;;;;;;;;;19.67;18.67;;;;;23.18;62.59;99462.53;6284243;20;2842010;-60
2022/07/28 00:07:50;;;;;;;;;19.33;18.33;;;;;23.16;62.34;99467.31;6319737;20;3566943;-60
2022/07/28 00:10:19;;;;;;;;;9.20;9.20;;;;;23.07;62.46;99466.53;6305973;20;2742170;-61
2022/07/28 00:12:48;;;;;;;;;18.00;18.00;;;;;22.91;63.26;99472.06;6279879;20;2837783;-60
2022/07/28 00:15:17;;;;;;;;;16.00;16.00;;;;;23.04;62.62;99471.50;6281343;20;2827496;-60
2022/07/28 00:17:45;;;;;;;;;16.00;16.00;;;;;22.98;62.91;99473.06;6278803;20;2829458;-61
2022/07/28 00:20:14;;;;;;;;;15.00;14.67;;;;;23.06;63.15;99466.69;6279490;20;3542965;-61
2022/07/28 00:22:44;;;;;;;;;22.00;18.00;;;;;23.13;62.71;99467.69;6281238;20;2838811;-60
2022/07/28 00:25:14;;;;;;;;;15.00;15.00;;;;;22.95;63.51;99457.81;6282580;20;2533636;-60
2022/07/28 00:27:42;;;;;;;;;17.33;16.33;;;;;22.92;63.94;99449.97;6313608;20;3557528;-60
2022/07/28 00:30:11;;;;;;;;;17.00;15.33;;;;;22.89;63.32;99450.34;6312415;20;3554535;-61
2022/07/28 00:32:40;;;;;;;;;18.33;16.67;;;;;22.89;63.28;99455.81;6314589;20;3569100;-60
2022/07/28 00:35:09;;;;;;;;;18.33;17.67;;;;;22.80;63.60;99456.88;6312758;20;3573190;-61
2022/07/28 00:37:39;;;;;;;;;18.50;17.50;;;;;22.78;63.83;99453.50;6276238;20;2832681;-60
2022/07/28 00:40:09;;;;;;;;;17.00;16.00;;;;;22.68;64.61;99450.13;6281449;20;2825328;-60
2022/07/28 00:42:38;;;;;;;;;16.00;16.00;;;;;22.73;64.23;99454.00;6281360;20;2825318;-61
2022/07/28 00:45:07;;;;;;;;;17.67;16.67;;;;;22.74;64.22;99457.59;6281125;20;2488008;-60
2022/07/28 00:47:36;;;;;;;;;17.00;17.00;;;;;22.73;64.40;99464.13;6309287;20;2825388;-61
2022/07/28 00:50:06;;;;;;;;;17.00;16.00;;;;;22.62;64.62;99456.28;6279660;20;2822270;-60
2022/07/28 00:52:35;;;;;;;;;15.00;13.67;;;;;22.65;64.39;99458.69;6278974;20;3531473;-60
2022/07/28 00:55:05;;;;;;;;;17.00;15.33;;;;;22.49;65.28;99454.97;6278391;20;2483605;-60
2022/07/28 00:57:33;;;;;;;;;19.00;17.00;;;;;22.23;66.30;99452.50;6308733;20;2831518;-60
2022/07/28 01:00:04;;;;;;;;;16.00;16.00;;;;;22.10;66.90;99453.00;6281095;20;2834726;-60
2022/07/28 01:02:33;;;;;;;;;15.00;15.00;;;;;21.90;67.88;99455.25;6282886;20;3545015;-60
2022/07/28 01:05:03;;;;;;;;;14.33;14.33;;;;;22.33;66.28;99452.31;6315895;20;3542944;-60
2022/07/28 01:08:05;;;;;;;;;15.50;15.50;;;;;22.19;66.38;99444.81;6309906;20;2820070;-60
2022/07/28 01:11:01;;;;;;;;;21.00;16.50;;;;;21.74;67.95;99441.63;6276755;20;2828459;-60
2022/07/28 01:14:00;;;;;;;;;17.50;16.00;;;;;21.80;67.91;99440.06;6276385;20;2826366;-60
2022/07/28 01:16:29;;;;;;;;;20.00;17.00;;;;;21.57;69.21;99437.22;6278369;20;2490389;-60
2022/07/28 01:19:36;;;;;;;;;18.00;16.33;;;;;21.40;69.30;99434.44;6312813;20;3559867;-60
2022/07/28 01:22:10;;;;;;;;;18.00;17.00;;;;;21.32;70.21;99441.75;6272127;20;2839859;-60
2022/07/28 01:25:02;;;;;;;;;20.67;18.00;;;;;21.26;70.62;99443.31;6310844;20;3561748;-60
2022/07/28 01:28:31;;;;;;;;;18.50;18.00;;;;;21.48;69.51;99439.94;6273005;20;2829406;-60
2022/07/28 01:31:08;;;;;;;;;17.33;16.33;;;;;21.24;69.41;99443.47;6278691;20;3561858;-60
2022/07/28 01:33:45;;;;;;;;;17.33;17.00;;;;;21.29;69.79;99442.97;6277861;20;3568064;-60
2022/07/28 01:36:44;;;;;;;;;17.67;17.67;;;;;21.31;70.17;99438.19;6273032;20;2500263;-60
2022/07/28 01:39:16;;;;;;;;;22.67;19.00;;;;;21.17;70.19;99437.00;6308306;20;2845079;-60
2022/07/28 01:41:46;;;;;;;;;16.33;16.33;;;;;21.04;70.72;99439.34;6310851;20;3556624;-60
2022/07/28 01:44:22;;;;;;;;;18.00;18.00;;;;;20.93;71.31;99448.72;6314044;20;3556487;-60
2022/07/28 01:46:54;;;;;;;;;20.50;19.50;;;;;21.10;71.15;99444.13;6305420;20;2846082;-60
2022/07/28 01:49:26;;;;;;;;;12.67;12.67;;;;;21.12;71.34;99435.78;6274928;20;3521104;-60
2022/07/28 01:51:57;;;;;;;;;18.50;18.00;;;;;21.13;70.96;99441.06;6306238;20;2827354;-60
2022/07/28 01:54:30;;;;;;;;;18.00;18.00;;;;;20.98;71.57;99445.47;6277848;20;2844061;-60
2022/07/28 01:57:01;;;;;;;;;20.50;19.50;;;;;20.87;72.06;99437.59;6306861;20;2824263;-60
2022/07/28 01:59:30;;;;;;;;;17.67;17.67;;;;;20.97;71.34;99441.03;6280741;20;3556666;-60
2022/07/28 02:02:01;;;;;;;;;19.33;18.67;;;;;20.87;72.26;99443.91;6310249;20;3571188;-60
2022/07/28 02:04:33;;;;;;;;;21.50;19.00;;;;;20.97;70.71;99443.78;6274990;20;2834671;-60
2022/07/28 02:07:03;;;;;;;;;18.50;18.00;;;;;21.00;71.26;99449.72;6273669;20;2833626;-60
2022/07/28 02:09:35;;;;;;;;;19.00;19.00;;;;;20.80;71.24;99446.47;6280158;20;3566950;-60
2022/07/28 02:12:06;;;;;;;;;18.00;18.00;;;;;20.74;72.16;99444.38;6308414;20;3567929;-60
2022/07/28 02:14:35;;;;;;;;;15.00;15.00;;;;;20.68;72.05;99450.50;6275330;20;2491977;-60
2022/07/28 02:17:15;;;;;;;;;21.00;21.00;;;;;20.74;72.30;99438.91;6275023;20;2827379;-60
2022/07/28 02:19:47;;;;;;;;;16.50;16.50;;;;;20.70;72.63;99442.16;6276720;20;2829413;-60
2022/07/28 02:22:17;;;;;;;;;16.00;15.00;;;;;20.63;73.12;99436.50;6279613;20;2823332;-60
2022/07/28 02:24:48;;;;;;;;;17.33;17.33;;;;;20.57;72.45;99439.91;6276148;20;3567935;-60
2022/07/28 02:27:31;;;;;;;;;18.00;17.00;;;;;20.67;72.72;99432.44;6277100;20;3553377;-60
2022/07/28 02:30:16;;;;;;;;;18.00;18.00;;;;;20.39;73.30;99429.91;6306411;20;2833674;-58
2022/07/28 02:32:55;;;;;;;;;17.50;17.00;;;;;20.76;72.11;99431.44;6276335;20;2829421;-56
2022/07/28 02:35:39;;;;;;;;;17.67;16.00;;;;;20.51;73.09;99435.06;6278435;20;3547360;-56
2022/07/28 02:38:25;;;;;;;;;18.67;18.00;;;;;20.35;74.05;99428.53;6309434;20;3557151;-56
2022/07/28 02:41:01;;;;;;;;;19.00;19.00;;;;;20.46;73.76;99432.84;6271910;20;2834661;-57
2022/07/28 02:43:32;;;;;;;;;16.67;16.67;;;;;20.31;73.64;99423.56;6307537;20;3555574;-57
2022/07/28 02:46:26;;;;;;;;;19.00;19.00;;;;;20.20;73.69;99430.16;6271831;20;2500266;-58
2022/07/28 02:49:08;;;;;;;;;17.50;17.50;;;;;20.08;74.87;99434.19;6306185;20;2827329;-60
2022/07/28 02:51:40;;;;;;;;;20.33;19.00;;;;;20.00;75.14;99437.72;6276307;20;3572166;-60
2022/07/28 02:54:11;;;;;;;;;20.67;20.67;;;;;20.03;75.11;99441.97;6276710;20;3561762;-60
2022/07/28 02:56:41;;;;;;;;;20.67;19.00;;;;;19.92;75.54;99437.66;6308987;20;3561737;-60
2022/07/28 02:59:24;;;;;;;;;23.67;23.00;;;;;19.88;75.69;99441.69;6276138;20;3596167;-60
2022/07/28 03:01:55;;;;;;;;;27.67;26.00;;;;;20.07;75.76;99446.09;6276813;20;3590866;-60
2022/07/28 03:07:14;;;;;;;;;24.00;23.00;;;;;19.90;75.15;99445.97;6274583;20;3572266;-60
2022/07/28 03:09:46;;;;;;;;;23.67;22.33;;;;;19.89;76.44;99454.34;6276662;20;3591892;-60
2022/07/28 03:12:15;;;;;;;;;20.00;20.00;;;;;19.84;76.11;99449.34;6281201;20;3564907;-61
2022/07/28 03:14:43;;;;;;;;;24.67;23.33;;;;;20.04;75.79;99451.88;6310804;20;3581497;-60
2022/07/28 03:17:12;;;;;;;;;26.67;25.00;;;;;19.64;76.83;99453.25;6273842;20;3579580;-60
2022/07/28 03:19:41;;;;;;;;;20.67;19.67;;;;;19.73;77.21;99455.06;6280272;20;3573253;-61
2022/07/28 03:22:10;;;;;;;;;23.00;22.00;;;;;19.91;75.81;99468.66;6280429;20;3583587;-61
2022/07/28 03:24:48;;;;;;;;;24.00;21.33;;;;;19.89;76.02;99463.34;6277545;20;3580552;-61
2022/07/28 03:27:34;;;;;;;;;24.00;19.33;;;;;19.92;75.80;99460.31;6273052;20;2843043;-61
2022/07/28 03:30:18;;;;;;;;;25.00;23.00;;;;;19.65;77.08;99460.44;6310237;20;3582529;-61
2022/07/28 03:32:59;;;;;;;;;26.00;21.67;;;;;19.73;77.06;99465.97;6278766;20;3571071;-62
2022/07/28 03:35:32;;;;;;;;;21.00;21.00;;;;;19.77;76.76;99451.00;6274823;20;2846170;-62
2022/07/28 03:38:13;;;;;;;;;22.00;21.00;;;;;19.66;76.65;99453.97;6308666;20;3576295;-62
2022/07/28 03:40:47;;;;;;;;;21.00;20.00;;;;;19.89;75.74;99460.63;6274525;20;2811713;-61
2022/07/28 03:43:23;;;;;;;;;23.50;20.50;;;;;19.70;76.68;99455.41;6275126;20;2834706;-60
2022/07/28 03:45:51;;;;;;;;;23.33;21.67;;;;;20.01;75.49;99468.53;6277632;20;3575352;-61
2022/07/28 03:48:27;;;;;;;;;23.67;21.67;;;;;20.08;75.78;99472.34;6276418;20;2848322;-60
2022/07/28 03:50:57;;;;;;;;;23.33;20.67;;;;;20.36;75.12;99471.13;6309249;20;3579498;-60
2022/07/28 03:53:28;;;;;;;;;25.67;23.33;;;;;20.53;74.29;99474.78;6278648;20;3593978;-60
2022/07/28 03:55:57;;;;;;;;;21.00;18.50;;;;;20.60;73.72;99475.03;6276505;20;2833645;-60
2022/07/28 03:58:27;;;;;;;;;24.00;22.00;;;;;20.56;73.86;99471.78;6274802;20;3581507;-60
2022/07/28 04:00:58;;;;;;;;;22.00;19.33;;;;;20.82;73.03;99482.59;6275593;20;2826282;-59
2022/07/28 04:03:29;;;;;;;;;22.67;22.00;;;;;20.90;72.14;99480.94;6305028;20;2843051;-60
2022/07/28 04:06:12;;;;;;;;;23.00;20.33;;;;;20.83;72.21;99478.88;6308304;20;3580444;-60
2022/07/28 04:08:42;;;;;;;;;22.33;19.67;;;;;20.86;72.49;99479.56;6276943;20;3580550;-60
2022/07/28 04:11:12;;;;;;;;;23.00;21.00;;;;;20.97;71.62;99487.44;6281620;20;2844466;-60
2022/07/28 04:13:42;;;;;;;;;21.67;18.67;;;;;20.77;72.35;99485.00;6313739;20;2850603;-60
2022/07/28 04:16:10;;;;;;;;;18.33;18.33;;;;;21.10;71.13;99495.16;6314177;20;3563819;-60
2022/07/28 04:18:39;;;;;;;;;19.33;19.33;;;;;21.01;71.03;99499.72;6316776;20;3582549;-60
2022/07/28 04:21:08;;;;;;;;;21.00;21.00;;;;;21.01;71.67;99502.44;6282010;20;3581497;-60
2022/07/28 04:23:37;;;;;;;;;19.00;19.00;;;;;21.09;70.92;99507.97;6285746;20;3515849;-61
2022/07/28 04:26:05;;;;;;;;;19.67;19.33;;;;;21.37;69.69;99505.78;6311095;20;3564828;-60
2022/07/28 04:28:35;;;;;;;;;17.00;17.00;;;;;21.68;68.71;99514.22;6280423;20;2831534;-60
2022/07/28 04:31:05;;;;;;;;;20.00;20.00;;;;;21.72;69.00;99511.13;6280279;20;3579423;-61
2022/07/28 04:33:33;;;;;;;;;22.67;21.33;;;;;21.98;68.43;99508.22;6313894;20;3587786;-60
2022/07/28 04:36:03;;;;;;;;;22.33;20.33;;;;;22.28;67.07;99523.09;6279310;20;3576459;-61
2022/07/28 04:38:33;;;;;;;;;22.00;21.00;;;;;22.42;66.85;99514.16;6285570;20;3583601;-60
2022/07/28 04:41:01;;;;;;;;;20.67;20.67;;;;;22.38;66.98;99521.03;6285444;20;3582535;-60
2022/07/28 04:43:30;;;;;;;;;23.00;21.67;;;;;22.34;67.45;99519.66;6283894;20;3586806;-61
2022/07/28 04:45:59;;;;;;;;;25.33;22.33;;;;;22.62;65.96;99513.75;6281151;20;3585832;-61
2022/07/28 04:48:28;;;;;;;;;22.33;22.00;;;;;22.61;66.21;99514.78;6285052;20;3587761;-61
2022/07/28 04:50:56;;;;;;;;;20.33;20.33;;;;;22.68;66.01;99513.06;6283552;20;3578346;-61
2022/07/28 04:53:27;;;;;;;;;17.00;17.00;;;;;22.75;65.45;99516.81;6277469;20;2776317;-61
2022/07/28 04:55:56;;;;;;;;;24.33;22.00;;;;;22.91;65.45;99522.22;6282664;20;3583587;-61
2022/07/28 04:58:26;;;;;;;;;24.67;21.33;;;;;22.62;66.58;99520.09;6286007;20;3578375;-60
2022/07/28 05:00:58;;;;;;;;;19.33;18.33;;;;;22.67;64.22;99531.38;6282459;20;3574229;-60
2022/07/28 05:03:27;;;;;;;;;23.00;23.00;;;;;22.86;65.15;99538.31;6281276;20;3578451;-61
2022/07/28 05:06:03;;;;;;;;;24.67;23.33;;;;;22.79;65.93;99540.88;6281320;20;3590065;-61
2022/07/28 05:08:32;;;;;;;;;23.67;22.00;;;;;22.93;64.33;99542.06;6282213;20;3578417;-60
2022/07/28 05:11:01;;;;;;;;;24.00;22.33;;;;;22.81;65.36;99543.47;6283510;20;3582579;-61
2022/07/28 05:13:29;;;;;;;;;25.00;22.00;;;;;23.24;63.94;99535.75;6282301;20;3592956;-61
2022/07/28 05:16:02;;;;;;;;;22.00;19.00;;;;;23.32;63.01;99541.19;6280629;20;3461866;-60
2022/07/28 05:18:31;;;;;;;;;16.00;16.00;;;;;23.66;60.42;99542.69;6310878;20;2824274;-60
2022/07/28 05:21:00;;;;;;;;;17.00;16.00;;;;;24.15;58.38;99542.31;6282016;20;3549205;-60
2022/07/28 05:23:28;;;;;;;;;16.00;16.00;;;;;23.88;58.58;99552.84;6277391;20;2823159;-60
2022/07/28 05:25:57;;;;;;;;;16.00;16.00;;;;;24.08;56.40;99544.09;6280702;20;2483575;-60
2022/07/28 05:28:25;;;;;;;;;17.50;14.50;;;;;24.22;56.05;99554.22;6311159;20;2809627;-60
2022/07/28 05:30:54;;;;;;;;;14.00;14.00;;;;;24.44;55.42;99546.16;6278320;20;3527411;-60
2022/07/28 05:33:23;;;;;;;;;16.00;13.00;;;;;24.65;54.57;99554.53;6275940;20;2817170;-61
2022/07/28 05:35:59;;;;;;;;;16.00;15.00;;;;;24.98;52.70;99549.47;6278231;20;3547229;-59
2022/07/28 05:38:31;;;;;;;;;15.00;12.67;;;;;25.21;52.76;99547.69;6310210;20;3539810;-60
2022/07/28 05:40:59;;;;;;;;;14.00;14.00;;;;;25.59;52.42;99549.19;6283825;20;2483588;-60
2022/07/28 05:43:28;;;;;;;;;15.33;15.00;;;;;25.32;51.50;99549.94;6310794;20;2483616;-61
2022/07/28 05:45:56;;;;;;;;;10.00;10.00;;;;;25.04;52.18;99558.88;6308311;20;3503385;-59
2022/07/28 05:48:25;;;;;;;;;14.67;13.00;;;;;25.26;51.56;99556.22;6310996;20;2485671;-60
2022/07/28 05:50:53;;;;;;;;;14.00;14.00;;;;;25.29;51.87;99561.31;6314425;20;3535674;-61
2022/07/28 05:53:23;;;;;;;;;13.00;13.00;;;;;25.33;51.91;99557.13;6309626;20;3510684;-61
2022/07/28 05:55:52;;;;;;;;;13.00;12.00;;;;;25.22;52.65;99560.38;6308434;20;2799376;-60
2022/07/28 05:58:30;;;;;;;;;14.00;13.33;;;;;25.16;52.28;99556.50;6281053;20;2483737;-59
2022/07/28 06:01:02;;;;;;;;;14.00;14.00;;;;;24.98;53.20;99560.47;6310251;20;3537742;-60
2022/07/28 06:03:33;;;;;;;;;13.33;13.33;;;;;25.06;53.35;99564.16;6277459;20;3528530;-60
2022/07/28 06:06:10;;;;;;;;;16.50;13.50;;;;;25.02;52.91;99571.09;6278046;20;2812803;-60
2022/07/28 06:08:47;;;;;;;;;17.67;13.67;;;;;25.05;52.12;99568.81;6280015;20;2489922;-60
2022/07/28 06:11:15;;;;;;;;;16.67;14.33;;;;;25.16;51.29;99576.59;6311391;20;2483638;-60
2022/07/28 06:13:52;;;;;;;;;15.00;15.00;;;;;25.07;51.61;99571.38;6307877;20;2812761;-59
2022/07/28 06:16:21;;;;;;;;;13.33;13.33;;;;;25.24;51.31;99580.28;6282422;20;3533616;-60
2022/07/28 06:18:51;;;;;;;;;10.33;10.33;;;;;25.13;51.83;99576.09;6308530;20;3517973;-60
2022/07/28 06:21:23;;;;;;;;;15.67;15.67;;;;;25.34;51.32;99580.84;6312190;20;3553073;-61
2022/07/28 06:23:51;;;;;;;;;14.00;14.00;;;;;25.31;51.73;99581.22;6313256;20;3544040;-60
2022/07/28 06:26:20;;;;;;;;;13.67;13.00;;;;;25.36;51.25;99584.25;6308943;20;2483607;-60
2022/07/28 06:28:51;;;;;;;;;17.50;16.00;;;;;25.36;51.39;99589.75;6314688;20;3435704;-60
2022/07/28 06:31:19;;;;;;;;;14.00;14.00;;;;;25.41;51.88;99598.28;6310045;20;3534621;-61
2022/07/28 06:33:48;;;;;;;;;12.00;12.00;;;;;25.81;51.42;99601.47;6308246;20;2487770;-60
2022/07/28 06:36:17;;;;;;;;;15.67;14.33;;;;;25.88;50.51;99598.81;6311603;20;3539834;-60
2022/07/28 06:38:45;;;;;;;;;12.67;12.67;;;;;25.72;49.92;99605.38;6308907;20;3524289;-61
2022/07/28 06:41:14;;;;;;;;;14.50;14.50;;;;;25.86;50.31;99600.88;6276919;20;2810704;-60
2022/07/28 06:43:43;;;;;;;;;17.00;16.00;;;;;26.02;49.91;99604.25;6278176;20;2491950;-61
2022/07/28 06:46:17;;;;;;;;;13.00;13.00;;;;;25.75;49.75;99607.72;6308420;20;2799238;-60
2022/07/28 06:48:46;;;;;;;;;13.50;13.50;;;;;25.79;50.61;99611.81;6281956;20;2745124;-61
2022/07/28 06:51:17;;;;;;;;;17.00;17.00;;;;;25.93;50.86;99610.91;6308547;20;2826291;-60
2022/07/28 06:53:47;;;;;;;;;17.67;16.67;;;;;26.16;49.80;99602.47;6280505;20;3567679;-60
2022/07/28 06:56:18;;;;;;;;;11.00;11.00;;;;;26.11;49.05;99615.13;6310371;20;2483599;-61
2022/07/28 06:58:49;;;;;;;;;17.00;15.00;;;;;26.02;49.70;99603.41;6307420;20;3545051;-60
2022/07/28 07:01:17;;;;;;;;;19.00;16.67;;;;;26.33;49.22;99610.44;6283574;20;3577335;-59
2022/07/28 07:03:46;;;;;;;;;17.00;17.00;;;;;26.28;48.99;99616.56;6274164;20;2827409;-60
2022/07/28 07:06:15;;;;;;;;;19.00;14.50;;;;;26.38;48.81;99608.78;6276574;20;2816939;-60
2022/07/28 07:08:44;;;;;;;;;16.67;16.00;;;;;26.51;48.16;99599.78;6281525;20;3556512;-59
2022/07/28 07:11:12;;;;;;;;;14.33;13.33;;;;;26.56;47.47;99613.00;6278132;20;3529434;-59
2022/07/28 07:13:41;;;;;;;;;12.00;12.00;;;;;26.73;46.70;99613.56;6272178;20;3520524;-59
2022/07/28 07:16:09;;;;;;;;;16.00;14.00;;;;;26.66;46.49;99610.75;6278166;20;3550227;-59
2022/07/28 07:18:38;;;;;;;;;15.00;15.00;;;;;27.04;46.41;99610.34;6307576;20;2803462;-60
2022/07/28 07:21:07;;;;;;;;;14.00;14.00;;;;;27.02;46.55;99613.34;6276258;20;3532640;-60
2022/07/28 07:23:35;;;;;;;;;14.33;11.00;;;;;27.24;46.05;99622.38;6275109;20;3516955;-59
2022/07/28 07:26:04;;;;;;;;;11.33;11.33;;;;;27.22;45.64;99610.69;6278143;20;2479442;-58
2022/07/28 07:28:33;;;;;;;;;18.00;15.00;;;;;27.09;45.25;99618.88;6311486;20;3546104;-58
2022/07/28 07:31:02;;;;;;;;;13.00;12.33;;;;;27.17;44.83;99618.72;6310934;20;3531530;-59
2022/07/28 07:33:31;;;;;;;;;12.33;12.00;;;;;27.43;44.75;99619.91;6310231;20;2483728;-56
2022/07/28 07:36:03;;;;;;;;;15.33;13.67;;;;;27.01;45.30;99617.13;6306863;20;2483676;-57
2022/07/28 07:38:32;;;;;;;;;15.00;14.00;;;;;27.44;43.95;99613.38;6308287;20;3531588;-58
2022/07/28 07:41:00;;;;;;;;;14.67;13.67;;;;;27.34;45.21;99614.59;6274855;20;3533610;-58
2022/07/28 07:43:29;;;;;;;;;13.00;11.33;;;;;27.35;44.70;99612.66;6276263;20;3536723;-58
2022/07/28 07:45:57;;;;;;;;;9.00;9.00;;;;;27.41;44.92;99619.25;6281073;20;2741980;-58
2022/07/28 07:48:26;;;;;;;;;11.00;10.00;;;;;27.19;44.41;99619.38;6318852;20;2775365;-58
2022/07/28 07:50:54;;;;;;;;;12.67;12.67;;;;;27.40;44.81;99620.34;6313263;20;2485659;-58
2022/07/28 07:53:23;;;;;;;;;13.67;12.67;;;;;27.11;44.55;99627.78;6312862;20;3521219;-57
2022/07/28 07:55:52;;;;;;;;;14.00;14.00;;;;;27.24;44.20;99622.38;6312965;20;3531662;-58
2022/07/28 07:58:21;;;;;;;;;10.67;10.67;;;;;27.23;44.47;99617.94;6281519;20;3517924;-57
2022/07/28 08:00:49;;;;;;;;;9.00;8.67;;;;;27.35;44.31;99621.78;6277751;20;3468065;-57
2022/07/28 08:03:19;;;;;;;;;12.67;12.67;;;;;27.50;44.30;99629.06;6316455;20;3532627;-58
2022/07/28 08:05:54;;;;;;;;;15.00;13.67;;;;;27.86;43.04;99625.19;6310803;20;3518514;-57
2022/07/28 08:08:24;;;;;;;;;12.00;12.00;;;;;28.93;40.96;99626.13;6277828;20;3526343;-57
2022/07/28 08:10:53;;;;;;;;;12.67;11.67;;;;;29.36;40.17;99620.94;6280172;20;3515907;-59
2022/07/28 08:13:22;;;;;;;;;9.33;8.33;;;;;30.06;38.66;99636.78;6324091;20;2750250;-61
2022/07/28 08:15:51;;;;;;;;;12.00;11.33;;;;;30.50;38.71;99637.78;6312135;20;3515020;-61
2022/07/28 08:18:20;;;;;;;;;13.67;11.00;;;;;30.22;38.67;99641.78;6306359;20;3499324;-61
2022/07/28 08:20:48;;;;;;;;;12.00;12.00;;;;;30.17;38.10;99639.66;6313897;20;2807535;-62
2022/07/28 08:23:17;;;;;;;;;12.33;11.33;;;;;30.50;37.61;99646.09;6282261;20;3513795;-62
2022/07/28 08:25:53;;;;;;;;;9.67;9.67;;;;;30.76;36.84;99639.47;6313481;20;3497143;-60
2022/07/28 08:28:22;;;;;;;;;12.33;10.67;;;;;30.82;37.08;99641.34;6315650;20;2783780;-61
2022/07/28 08:30:51;;;;;;;;;12.00;12.00;;;;;30.58;37.39;99641.09;6316042;20;2483598;-61
2022/07/28 08:33:20;;;;;;;;;10.33;9.00;;;;;30.84;37.04;99641.97;6313786;20;3483539;-60
2022/07/28 08:35:49;;;;;;;;;9.00;9.00;;;;;30.76;36.81;99639.47;6318630;20;2742143;-61
2022/07/28 08:38:18;;;;;;;;;11.00;11.00;;;;;31.17;36.46;99633.31;6319437;20;3528421;-61
2022/07/28 08:40:50;;;;;;;;;9.00;9.00;;;;;31.54;35.12;99633.31;6317406;20;2759753;-62
2022/07/28 08:43:41;;;;;;;;;11.33;10.33;;;;;31.71;35.67;99639.09;6317399;20;2483622;-52
2022/07/28 08:46:11;;;;;;;;;10.00;10.00;;;;;31.81;35.09;99636.63;6311590;20;3505458;-60
2022/07/28 08:48:39;;;;;;;;;9.33;9.33;;;;;31.08;36.23;99634.69;6283653;20;2755498;-61
2022/07/28 08:51:10;;;;;;;;;13.33;12.33;;;;;30.84;36.19;99639.22;6312970;20;3527386;-61
2022/07/28 08:53:40;;;;;;;;;11.00;11.00;;;;;30.77;36.90;99635.63;6291325;20;3505489;-60
2022/07/28 08:56:14;;;;;;;;;10.33;10.33;;;;;30.44;37.19;99633.13;6314276;20;3514931;-60
2022/07/28 08:58:43;;;;;;;;;9.67;9.67;;;;;30.97;36.09;99638.25;6316724;20;3494053;-60
2022/07/28 09:01:12;;;;;;;;;11.00;11.00;;;;;31.23;36.08;99640.72;6315591;20;3518987;-61
2022/07/28 09:03:42;;;;;;;;;9.67;9.67;;;;;30.53;36.17;99637.31;6282856;20;3482638;-60
2022/07/28 09:06:11;;;;;;;;;11.67;10.33;;;;;29.92;36.73;99634.09;6311198;20;3509619;-60
2022/07/28 09:08:39;;;;;;;;;10.00;9.33;;;;;30.59;36.69;99641.94;6311896;20;3488769;-60
2022/07/28 09:11:10;;;;;;;;;9.33;9.33;;;;;31.57;34.36;99644.00;6312657;20;2762846;-60
2022/07/28 09:13:39;;;;;;;;;12.33;9.33;;;;;31.10;34.82;99638.09;6314387;20;3500567;-60
2022/07/28 09:16:08;;;;;;;;;7.00;5.33;;;;;30.87;34.65;99641.53;6317974;20;2739848;-60
2022/07/28 09:18:36;;;;;;;;;7.67;7.67;;;;;30.13;37.28;99634.81;6312148;20;2747170;-60
2022/07/28 09:21:05;;;;;;;;;10.33;10.00;;;;;30.21;37.21;99634.56;6314824;20;2483600;-60
2022/07/28 09:23:48;;;;;;;;;10.00;9.67;;;;;31.04;35.81;99637.09;6315483;20;3484626;-60
2022/07/28 09:26:17;;;;;;;;;7.67;7.67;;;;;32.14;34.17;99636.16;6313310;20;3470086;-60
2022/07/28 09:28:56;;;;;;;;;11.67;10.00;;;;;31.62;34.21;99629.38;6313503;20;3509334;-61
2022/07/28 09:31:27;;;;;;;;;10.00;9.00;;;;;32.35;33.54;99631.13;6286682;20;2483591;-61
2022/07/28 09:34:03;;;;;;;;;12.00;10.00;;;;;32.76;32.68;99624.69;6314180;20;3514851;-60
2022/07/28 09:36:40;;;;;;;;;7.67;7.67;;;;;32.42;32.79;99634.66;6314730;20;2730658;-61
2022/07/28 09:39:09;;;;;;;;;13.33;11.00;;;;;32.46;33.13;99630.31;6316363;20;3518996;-60
2022/07/28 09:41:53;;;;;;;;;10.67;10.67;;;;;32.79;33.38;99624.22;6318282;20;2483583;-60
2022/07/28 09:44:25;;;;;;;;;9.00;9.00;;;;;32.59;32.66;99623.72;6319206;20;2750323;-60
2022/07/28 09:46:55;;;;;;;;;12.33;12.33;;;;;32.38;32.42;99627.03;6312271;20;3518009;-60
2022/07/28 09:49:41;;;;;;;;;10.00;10.00;;;;;32.47;32.47;99625.63;6283054;20;3503389;-61
2022/07/28 09:52:11;;;;;;;;;10.00;10.00;;;;;32.42;33.28;99626.31;6313677;20;3509753;-60
2022/07/28 09:54:59;;;;;;;;;10.67;10.67;;;;;31.84;33.77;99619.47;6280257;20;3503430;-60
2022/07/28 09:57:30;;;;;;;;;12.00;9.00;;;;;32.10;33.08;99629.41;6312963;20;3488796;-61
2022/07/28 10:00:08;;;;;;;;;10.33;9.33;;;;;31.46;33.75;99620.59;6320579;20;2771076;-60
2022/07/28 10:02:39;;;;;;;;;11.00;11.00;;;;;31.12;35.26;99624.81;6317043;20;3518024;-60
2022/07/28 10:05:11;;;;;;;;;8.33;8.33;;;;;31.12;35.56;99615.66;6311675;20;3464816;-60
2022/07/28 10:07:51;;;;;;;;;10.00;10.00;;;;;30.85;35.70;99613.16;6305405;20;3506574;-60
2022/07/28 10:10:22;;;;;;;;;3.67;3.67;;;;;31.44;33.56;99616.41;6316344;20;2752391;-60
2022/07/28 10:12:50;;;;;;;;;8.67;8.67;;;;;31.67;33.24;99619.28;6318843;20;2762832;-60
2022/07/28 10:18:17;;;;;;;;;10.67;10.67;;;;;32.08;32.78;99609.31;6282975;20;3511694;-60
2022/07/28 10:20:48;;;;;;;;;8.67;8.00;;;;;32.66;31.58;99609.72;6313143;20;3475713;-61
2022/07/28 10:23:18;;;;;;;;;10.33;10.00;;;;;32.73;31.79;99611.28;6311252;20;3510703;-61
2022/07/28 10:25:46;;;;;;;;;10.00;10.00;;;;;32.45;31.61;99617.50;6313052;20;2483628;-61
2022/07/28 10:28:21;;;;;;;;;9.00;9.00;;;;;32.84;30.75;99615.16;6311930;20;3476423;-61
2022/07/28 10:30:54;;;;;;;;;8.00;8.00;;;;;32.76;31.34;99613.56;6320442;20;2748212;-61
2022/07/28 10:33:25;;;;;;;;;8.00;8.00;;;;;33.12;31.04;99616.34;6320637;20;2750767;-61
2022/07/28 10:35:53;;;;;;;;;10.00;8.00;;;;;33.75;29.28;99612.72;6310567;20;3480626;-61
2022/07/28 10:38:29;;;;;;;;;10.67;9.00;;;;;33.26;30.32;99603.88;6309302;20;2771166;-61
2022/07/28 10:41:03;;;;;;;;;9.33;9.33;;;;;33.01;30.83;99599.44;6309127;20;3482522;-60
2022/07/28 10:43:32;;;;;;;;;11.00;9.33;;;;;32.34;31.41;99593.31;6317210;20;2774330;-60
2022/07/28 10:46:04;;;;;;;;;9.00;9.00;;;;;32.56;31.43;99591.69;6318735;20;2747196;-60
2022/07/28 10:48:37;;;;;;;;;8.00;8.00;;;;;32.97;30.48;99592.66;6312583;20;2752365;-61
2022/07/28 10:51:06;;;;;;;;;10.00;8.33;;;;;32.60;29.93;99588.41;6314360;20;2475286;-62
2022/07/28 10:54:28;;;;;;;;;8.00;8.00;;;;;33.58;29.11;99595.97;6312343;20;2756570;-57
2022/07/28 10:57:01;;;;;;;;;9.00;7.00;;;;;33.73;29.43;99594.56;6320392;20;2739861;-62
2022/07/28 11:00:17;;;;;;;;;8.67;8.67;;;;;33.56;29.42;99594.50;6311899;20;2752384;-62
2022/07/28 11:03:00;;;;;;;;;7.33;7.33;;;;;33.44;29.32;99573.09;6310047;20;2748240;-62
2022/07/28 11:05:42;;;;;;;;;10.33;9.00;;;;;33.51;29.73;99577.66;6309865;20;3483619;-61
2022/07/28 11:08:19;;;;;;;;;11.00;11.00;;;;;33.09;29.68;99572.34;6307807;20;3515881;-60
2022/07/28 11:10:53;;;;;;;;;11.00;10.00;;;;;33.09;30.57;99570.38;6280470;20;3504503;-60
2022/07/28 11:13:36;;;;;;;;;8.33;8.33;;;;;33.26;30.16;99572.41;6289884;20;2751327;-60
2022/07/28 11:16:14;;;;;;;;;10.33;8.33;;;;;33.59;30.01;99572.56;6312238;20;3492275;-58
2022/07/28 11:19:06;;;;;;;;;10.00;10.00;;;;;32.98;30.64;99572.06;6313320;20;3514902;-60
2022/07/28 11:25:00;;;;;;;;;11.00;9.67;;;;;34.08;28.54;99567.41;6316478;20;3508600;-60
2022/07/28 11:27:59;;;;;;;;;11.33;10.00;;;;;33.53;28.69;99564.34;6314103;20;3509588;-60
2022/07/28 11:30:27;;;;;;;;;9.33;8.67;;;;;33.43;29.10;99559.41;6327979;20;2757568;-60
2022/07/28 11:33:00;;;;;;;;;9.00;9.00;;;;;33.93;28.56;99567.09;6317840;20;2750280;-60
2022/07/28 11:35:32;;;;;;;;;7.33;7.33;;;;;33.49;30.17;99560.34;6318448;20;2736815;-60
2022/07/28 11:38:00;;;;;;;;;8.00;8.00;;;;;32.75;30.41;99555.41;6314828;20;2746188;-59